CDT,Max TemperatureF,Mean TemperatureF,Min TemperatureF,Max Dew PointF,MeanDew PointF,Min DewpointF,Max Humidity, Mean Humidity, Min Humidity, Max Sea Level PressureIn, Mean Sea Level PressureIn, Min Sea Level PressureIn, Max VisibilityMiles, Mean VisibilityMiles, Min VisibilityMiles, Max Wind SpeedMPH, Mean Wind SpeedMPH, Max Gust SpeedMPH,PrecipitationIn, CloudCover, Events, WindDirDegrees
2011-9-1,84,70,55,66,60,55,100,87,53,30.00,29.95,29.78,10,4,0,15,2,20,0.01,3,Fog,159
2011-9-2,80,73,64,74,68,61,100,86,58,29.93,29.78,29.70,10,4,0,13,5,,0.04,4,Fog-Rain,216
2011-9-3,66,64,61,64,61,55,100,92,78,29.93,29.84,29.76,10,7,1,13,4,21,0.18,7,Rain-Thunderstorm,158
2011-9-4,64,55,46,54,49,44,96,78,59,30.13,29.94,29.79,10,10,3,24,10,33,0.01,5,Rain,333
2011-9-5,62,52,39,44,41,38,97,68,42,30.23,30.19,30.13,10,10,10,13,6,18,0.00,4,,6
2011-9-6,69,52,35,46,38,35,100,83,31,30.29,30.23,30.20,10,5,0,5,1,,0.01,2,Fog,209
2011-9-7,77,57,37,52,44,37,100,81,39,30.30,30.25,30.22,10,6,0,13,2,,0.00,2,Fog,343
2011-9-8,81,64,48,57,49,40,97,67,23,30.26,30.19,30.09,10,10,10,12,5,21,0.01,0,,357
2011-9-9,84,64,44,55,50,45,100,74,33,30.10,30.04,29.97,10,7,0,9,1,,0.00,0,Fog,23
2011-9-10,84,66,50,57,53,48,96,69,34,30.08,30.03,29.98,10,10,7,9,3,,0.00,0,,173
2011-9-11,84,70,57,59,56,52,93,62,33,29.98,29.90,29.84,10,10,7,12,4,21,0.00,2,,281
2011-9-12,86,68,51,61,55,48,100,81,36,29.89,29.81,29.58,10,5,0,24,3,37,0.06,2,Fog-Rain-Thunderstorm,243
2011-9-13,64,58,51,56,43,36,81,60,34,29.92,29.85,29.70,10,10,6,22,14,32,0.00,5,,309
2011-9-14,54,45,36,46,33,25,90,62,35,30.22,30.10,29.91,10,10,10,21,11,28,0.00,3,,307
2011-9-15,55,44,33,36,31,28,92,67,37,30.39,30.35,30.24,10,10,10,20,6,28,0.00,2,,322
2011-9-16,62,44,26,39,30,25,100,82,31,30.43,30.36,30.30,10,6,0,14,1,16,0.00,3,Fog,209
2011-9-17,62,44,28,42,35,29,100,80,46,30.40,30.34,30.29,10,6,0,13,2,21,0.01,2,Fog,166
2011-9-18,69,50,33,55,43,34,100,90,42,30.28,30.16,29.94,10,5,0,17,3,28,0.14,5,Fog-Rain,159
2011-9-19,70,56,41,56,50,39,100,82,37,29.99,29.90,29.86,10,8,2,15,5,23,0.31,5,Rain,312
2011-9-20,69,52,37,59,47,36,100,82,54,30.02,29.93,29.78,10,7,1,14,4,22,0.02,3,Rain,155
2011-9-21,60,55,50,55,50,44,96,83,63,29.89,29.76,29.71,10,8,2,14,8,23,0.06,6,Rain,211
2011-9-22,54,46,42,45,42,39,93,86,71,30.14,30.03,29.88,10,9,2,14,6,17,0.00,7,Rain,294
2011-9-23,57,50,44,49,45,43,100,87,62,30.14,30.10,30.03,10,6,1,8,4,,0.01,8,Rain,323
2011-9-24,54,48,41,54,48,39,100,95,82,30.09,30.05,30.00,10,5,0,13,5,,0.05,7,Fog-Rain,323
2011-9-25,64,54,46,54,49,46,100,90,60,30.12,30.06,29.97,10,5,0,10,4,17,0.00,8,Fog-Rain,86
2011-9-26,61,57,53,61,55,51,100,92,83,29.98,29.85,29.77,10,6,1,23,8,32,0.25,8,Rain,35
2011-9-27,66,55,44,59,52,43,100,91,58,29.88,29.83,29.78,10,5,0,14,4,,0.04,5,Fog-Rain,49
2011-9-28,69,54,39,52,43,39,100,91,45,29.90,29.84,29.75,10,4,0,6,1,,0.00,3,Fog,303
2011-9-29,57,52,46,55,49,42,100,92,82,29.78,29.57,29.42,10,5,0,28,5,43,0.20,6,Fog-Rain,309
2011-9-30,52,44,34,42,36,31,93,72,46,30.27,30.07,29.82,10,10,3,24,18,36,0.00,6,Rain,345